NSZ3753 LIBD-EKCH
Flight info
| Callsign | NSZ3753 |
|---|---|
| Flight time | 2h 21m |
| Altitude | 36000 |
| Route | BANAV DCT AIOSA DCT ORAKA DCT DIXUM DCT TIVNU/N0452F380 DCT MOSAV DCT INSAX DCT LOKVU DCT ODLIV DCT HDO DCT GEVNI T239 PEROM T298 MONAK |
| Aircraft | B738/M-SDE2E3FGHIRWXY/LB1 |
Departure
| Time | 2026-04-22 15:07 |
|---|---|
| Airport | Bari Karol Wojtyła International Airport (LIBD) |
Arrival
| Time | 2026-04-22 17:29 |
|---|---|
| Airport | Copenhagen Kastrup Airport (EKCH) |
| Time | Latitude | Longitude | Altitude | Speed | Heading |
|---|---|---|---|---|---|
| 2026-04-22 14:50 | 41.13512 | 16.76293 | 135 ft | 0 kts | 159° |
| 2026-04-22 14:59 | 41.13518 | 16.76290 | 135 ft | 3 kts | 159° |
| 2026-04-22 14:59 | 41.13537 | 16.76280 | 135 ft | 2 kts | 159° |
| 2026-04-22 14:59 | 41.13557 | 16.76267 | 135 ft | 3 kts | 137° |
| 2026-04-22 15:00 | 41.13569 | 16.76244 | 154 ft | 3 kts | 97° |
| 2026-04-22 15:00 | 41.13568 | 16.76219 | 128 ft | 1 kts | 69° |
| 2026-04-22 15:03 | 41.13569 | 16.76222 | 135 ft | 2 kts | 69° |
| 2026-04-22 15:03 | 41.13583 | 16.76272 | 135 ft | 10 kts | 69° |
| 2026-04-22 15:03 | 41.13618 | 16.76394 | 135 ft | 16 kts | 69° |
| 2026-04-22 15:04 | 41.13667 | 16.76527 | 135 ft | 16 kts | 39° |
| 2026-04-22 15:04 | 41.13768 | 16.76548 | 135 ft | 15 kts | 341° |
| 2026-04-22 15:04 | 41.13814 | 16.76566 | 133 ft | 3 kts | 72° |
| 2026-04-22 15:04 | 41.13825 | 16.76625 | 133 ft | 12 kts | 74° |
| 2026-04-22 15:05 | 41.13864 | 16.76763 | 125 ft | 19 kts | 69° |
| 2026-04-22 15:05 | 41.13912 | 16.76932 | 125 ft | 19 kts | 70° |
| 2026-04-22 15:05 | 41.13958 | 16.77097 | 120 ft | 19 kts | 69° |
| 2026-04-22 15:05 | 41.14004 | 16.77255 | 121 ft | 18 kts | 69° |
| 2026-04-22 15:06 | 41.14068 | 16.77387 | 119 ft | 17 kts | 24° |
| 2026-04-22 15:06 | 41.14184 | 16.77414 | 115 ft | 17 kts | 341° |
| 2026-04-22 15:06 | 41.14212 | 16.77331 | 114 ft | 10 kts | 251° |
| 2026-04-22 15:06 | 41.14210 | 16.77327 | 114 ft | 1 kts | 249° |
| 2026-04-22 15:07 | 41.14160 | 16.77150 | 122 ft | 53 kts | 249° |
| 2026-04-22 15:07 | 41.13945 | 16.76389 | 126 ft | 121 kts | 249° |
| 2026-04-22 15:07 | 41.13596 | 16.75152 | 366 ft | 154 kts | 251° |
| 2026-04-22 15:07 | 41.13222 | 16.73800 | 1192 ft | 153 kts | 254° |
| 2026-04-22 15:08 | 41.12836 | 16.72455 | 1922 ft | 162 kts | 254° |
| 2026-04-22 15:08 | 41.12411 | 16.70950 | 2243 ft | 187 kts | 255° |
| 2026-04-22 15:08 | 41.11929 | 16.69238 | 2505 ft | 207 kts | 253° |
| 2026-04-22 15:08 | 41.11410 | 16.67419 | 2922 ft | 213 kts | 253° |
| 2026-04-22 15:09 | 41.10877 | 16.65559 | 3385 ft | 219 kts | 253° |
| 2026-04-22 15:09 | 41.10333 | 16.63641 | 3940 ft | 224 kts | 255° |
| 2026-04-22 15:09 | 41.10228 | 16.61579 | 4173 ft | 237 kts | 290° |
| 2026-04-22 15:09 | 41.11180 | 16.59781 | 4459 ft | 246 kts | 327° |
| 2026-04-22 15:10 | 41.12773 | 16.58975 | 5050 ft | 249 kts | 354° |
| 2026-04-22 15:10 | 41.14495 | 16.59246 | 5691 ft | 255 kts | 18° |
| 2026-04-22 15:10 | 41.16103 | 16.60298 | 6320 ft | 262 kts | 28° |
| 2026-04-22 15:10 | 41.17659 | 16.61591 | 6944 ft | 265 kts | 30° |
| 2026-04-22 15:11 | 41.19216 | 16.62939 | 7585 ft | 269 kts | 29° |
| 2026-04-22 15:11 | 41.20797 | 16.64307 | 8211 ft | 274 kts | 28° |
| 2026-04-22 15:11 | 41.22403 | 16.65685 | 8949 ft | 275 kts | 28° |
| 2026-04-22 15:11 | 41.24035 | 16.67071 | 9592 ft | 281 kts | 27° |
| 2026-04-22 15:12 | 41.25695 | 16.68471 | 10240 ft | 285 kts | 27° |
| 2026-04-22 15:12 | 41.27435 | 16.69924 | 10450 ft | 306 kts | 27° |
| 2026-04-22 15:12 | 41.29304 | 16.71478 | 10616 ft | 327 kts | 27° |
| 2026-04-22 15:12 | 41.31287 | 16.73126 | 10896 ft | 343 kts | 27° |
| 2026-04-22 15:13 | 41.33333 | 16.74830 | 11424 ft | 350 kts | 27° |
| 2026-04-22 15:13 | 41.35413 | 16.76566 | 12071 ft | 355 kts | 27° |
| 2026-04-22 15:13 | 41.37521 | 16.78326 | 12720 ft | 360 kts | 26° |
| 2026-04-22 15:13 | 41.39663 | 16.80112 | 13347 ft | 366 kts | 26° |
| 2026-04-22 15:14 | 41.41837 | 16.81924 | 14003 ft | 371 kts | 26° |
| 2026-04-22 15:14 | 41.44036 | 16.83759 | 14656 ft | 374 kts | 25° |
| 2026-04-22 15:14 | 41.46220 | 16.85583 | 15367 ft | 376 kts | 25° |
| 2026-04-22 15:14 | 41.48443 | 16.87440 | 16045 ft | 379 kts | 25° |
| 2026-04-22 15:15 | 41.50694 | 16.89320 | 16681 ft | 384 kts | 25° |
| 2026-04-22 15:15 | 41.52969 | 16.91221 | 17295 ft | 388 kts | 25° |
| 2026-04-22 15:15 | 41.55273 | 16.93148 | 17918 ft | 393 kts | 25° |
| 2026-04-22 15:15 | 41.57604 | 16.95099 | 18483 ft | 398 kts | 24° |
| 2026-04-22 15:16 | 41.59959 | 16.97073 | 19035 ft | 401 kts | 24° |
| 2026-04-22 15:16 | 41.62329 | 16.99063 | 19628 ft | 403 kts | 23° |
| 2026-04-22 15:16 | 41.64711 | 17.01065 | 20208 ft | 406 kts | 23° |
| 2026-04-22 15:16 | 41.67112 | 17.03084 | 20768 ft | 408 kts | 22° |
| 2026-04-22 15:17 | 41.69524 | 17.05113 | 21323 ft | 411 kts | 22° |
| 2026-04-22 15:17 | 41.71952 | 17.07157 | 21861 ft | 414 kts | 21° |
| 2026-04-22 15:17 | 41.74398 | 17.09219 | 22410 ft | 416 kts | 21° |
| 2026-04-22 15:17 | 41.76855 | 17.11292 | 22951 ft | 419 kts | 20° |
| 2026-04-22 15:18 | 41.79326 | 17.13380 | 23489 ft | 421 kts | 20° |
| 2026-04-22 15:18 | 41.81810 | 17.15481 | 23939 ft | 423 kts | 20° |
| 2026-04-22 15:18 | 41.84308 | 17.17595 | 24359 ft | 426 kts | 19° |
| 2026-04-22 15:18 | 41.86822 | 17.19724 | 24771 ft | 428 kts | 19° |
| 2026-04-22 15:19 | 41.89350 | 17.21854 | 25181 ft | 428 kts | 17° |
| 2026-04-22 15:19 | 41.91959 | 17.23487 | 25559 ft | 410 kts | 5° |
| 2026-04-22 15:19 | 41.94679 | 17.24384 | 26001 ft | 396 kts | 356° |
| 2026-04-22 15:19 | 41.97375 | 17.24733 | 26458 ft | 383 kts | 348° |
| 2026-04-22 15:20 | 41.99166 | 17.24665 | 26738 ft | 380 kts | 346° |
| 2026-04-22 15:20 | 42.02677 | 17.24437 | 27211 ft | 382 kts | 345° |
| 2026-04-22 15:20 | 42.05342 | 17.24247 | 27571 ft | 385 kts | 345° |
| 2026-04-22 15:20 | 42.08020 | 17.24060 | 27939 ft | 387 kts | 345° |
| 2026-04-22 15:21 | 42.10717 | 17.23879 | 28311 ft | 389 kts | 345° |
| 2026-04-22 15:21 | 42.13423 | 17.23704 | 28666 ft | 391 kts | 345° |
| 2026-04-22 15:21 | 42.16146 | 17.23533 | 29009 ft | 393 kts | 346° |
| 2026-04-22 15:21 | 42.18882 | 17.23365 | 29343 ft | 395 kts | 346° |
| 2026-04-22 15:22 | 42.21634 | 17.23197 | 29665 ft | 397 kts | 346° |
| 2026-04-22 15:22 | 42.24388 | 17.23033 | 30107 ft | 396 kts | 346° |
| 2026-04-22 15:22 | 42.27129 | 17.22872 | 30506 ft | 394 kts | 346° |
| 2026-04-22 15:22 | 42.29873 | 17.22709 | 30777 ft | 396 kts | 346° |
| 2026-04-22 15:23 | 42.32629 | 17.22541 | 31016 ft | 398 kts | 346° |
| 2026-04-22 15:23 | 42.35399 | 17.22373 | 31304 ft | 399 kts | 347° |
| 2026-04-22 15:23 | 42.38172 | 17.22205 | 31607 ft | 399 kts | 347° |
| 2026-04-22 15:23 | 42.40950 | 17.22037 | 31879 ft | 400 kts | 347° |
| 2026-04-22 15:24 | 42.43705 | 17.21869 | 32115 ft | 402 kts | 347° |
| 2026-04-22 15:24 | 42.46506 | 17.21699 | 32370 ft | 404 kts | 348° |
| 2026-04-22 15:24 | 42.49352 | 17.21526 | 32655 ft | 405 kts | 348° |
| 2026-04-22 15:24 | 42.52128 | 17.21358 | 32914 ft | 406 kts | 348° |
| 2026-04-22 15:25 | 42.54953 | 17.21187 | 33165 ft | 407 kts | 348° |
| 2026-04-22 15:25 | 42.57786 | 17.21015 | 33437 ft | 408 kts | 349° |
| 2026-04-22 15:25 | 42.60622 | 17.20842 | 33697 ft | 409 kts | 349° |
| 2026-04-22 15:25 | 42.63468 | 17.20669 | 33957 ft | 409 kts | 349° |
| 2026-04-22 15:26 | 42.66319 | 17.20496 | 34187 ft | 410 kts | 349° |
| 2026-04-22 15:26 | 42.69169 | 17.20322 | 34400 ft | 411 kts | 349° |
| 2026-04-22 15:26 | 42.72023 | 17.20148 | 34617 ft | 411 kts | 349° |
| 2026-04-22 15:26 | 42.74884 | 17.19973 | 34828 ft | 412 kts | 350° |
| 2026-04-22 15:27 | 42.77751 | 17.19798 | 35033 ft | 412 kts | 350° |
| 2026-04-22 15:27 | 42.80617 | 17.19622 | 35234 ft | 413 kts | 350° |
| 2026-04-22 15:27 | 42.83494 | 17.19446 | 35433 ft | 414 kts | 350° |
| 2026-04-22 15:27 | 42.86372 | 17.19269 | 35648 ft | 414 kts | 350° |
| 2026-04-22 15:28 | 42.89254 | 17.19092 | 35857 ft | 414 kts | 351° |
| 2026-04-22 15:28 | 42.92137 | 17.18915 | 36011 ft | 416 kts | 351° |
| 2026-04-22 15:28 | 42.97957 | 17.18554 | 36023 ft | 419 kts | 351° |
| 2026-04-22 15:29 | 43.03766 | 17.18199 | 36018 ft | 416 kts | 351° |
| 2026-04-22 15:30 | 43.11418 | 17.17730 | 36021 ft | 411 kts | 351° |
| 2026-04-22 15:30 | 43.18085 | 17.17316 | 36027 ft | 409 kts | 351° |
| 2026-04-22 15:31 | 43.23781 | 17.16960 | 36032 ft | 410 kts | 351° |
| 2026-04-22 15:31 | 43.29452 | 17.16606 | 36030 ft | 411 kts | 351° |
| 2026-04-22 15:32 | 43.35191 | 17.16246 | 36043 ft | 413 kts | 351° |
| 2026-04-22 15:32 | 43.40958 | 17.15884 | 36049 ft | 417 kts | 351° |
| 2026-04-22 15:33 | 43.46770 | 17.15520 | 36055 ft | 420 kts | 352° |
| 2026-04-22 15:33 | 43.52627 | 17.15151 | 36063 ft | 422 kts | 352° |
| 2026-04-22 15:34 | 43.58512 | 17.14783 | 36075 ft | 424 kts | 352° |
| 2026-04-22 15:34 | 43.64417 | 17.14413 | 36075 ft | 425 kts | 352° |
| 2026-04-22 15:35 | 43.69334 | 17.14103 | 36095 ft | 425 kts | 352° |
| 2026-04-22 15:35 | 43.76205 | 17.13670 | 36133 ft | 427 kts | 352° |
| 2026-04-22 15:35 | 43.79178 | 17.13481 | 36311 ft | 428 kts | 352° |
| 2026-04-22 15:36 | 43.82150 | 17.13293 | 36569 ft | 427 kts | 352° |
| 2026-04-22 15:36 | 43.85111 | 17.13106 | 36809 ft | 426 kts | 352° |
| 2026-04-22 15:36 | 43.88072 | 17.12918 | 36990 ft | 426 kts | 352° |
| 2026-04-22 15:36 | 43.91038 | 17.12729 | 37157 ft | 427 kts | 352° |
| 2026-04-22 15:37 | 43.94009 | 17.12540 | 37351 ft | 427 kts | 352° |
| 2026-04-22 15:37 | 43.96978 | 17.12351 | 37540 ft | 427 kts | 353° |
| 2026-04-22 15:37 | 43.99947 | 17.12161 | 37719 ft | 427 kts | 353° |
| 2026-04-22 15:37 | 44.02917 | 17.11971 | 37875 ft | 428 kts | 353° |
| 2026-04-22 15:38 | 44.05895 | 17.11781 | 38039 ft | 428 kts | 353° |
| 2026-04-22 15:38 | 44.11855 | 17.11400 | 38146 ft | 430 kts | 353° |
| 2026-04-22 15:38 | 44.14855 | 17.11207 | 38149 ft | 431 kts | 353° |
| 2026-04-22 15:39 | 44.20840 | 17.10824 | 38169 ft | 430 kts | 353° |
| 2026-04-22 15:39 | 44.26823 | 17.10440 | 38170 ft | 430 kts | 353° |
| 2026-04-22 15:40 | 44.32800 | 17.10055 | 38167 ft | 430 kts | 353° |
| 2026-04-22 15:40 | 44.38777 | 17.09669 | 38172 ft | 430 kts | 353° |
| 2026-04-22 15:41 | 44.44758 | 17.09282 | 38164 ft | 430 kts | 353° |
| 2026-04-22 15:41 | 44.50696 | 17.08897 | 38168 ft | 430 kts | 354° |
| 2026-04-22 15:42 | 44.56665 | 17.08509 | 38170 ft | 429 kts | 354° |
| 2026-04-22 15:42 | 44.61656 | 17.08184 | 38181 ft | 428 kts | 354° |
| 2026-04-22 15:43 | 44.67612 | 17.07796 | 38173 ft | 428 kts | 354° |
| 2026-04-22 15:43 | 44.73527 | 17.07409 | 38179 ft | 428 kts | 354° |
| 2026-04-22 15:44 | 44.79479 | 17.07019 | 38191 ft | 428 kts | 354° |
| 2026-04-22 15:44 | 44.85443 | 17.06628 | 38186 ft | 429 kts | 354° |
| 2026-04-22 15:45 | 44.91414 | 17.06235 | 38187 ft | 429 kts | 354° |
| 2026-04-22 15:45 | 44.97377 | 17.05771 | 38181 ft | 429 kts | 350° |
| 2026-04-22 15:46 | 45.03276 | 17.04572 | 38188 ft | 428 kts | 348° |
| 2026-04-22 15:46 | 45.09163 | 17.03254 | 38186 ft | 429 kts | 349° |
| 2026-04-22 15:47 | 45.15027 | 17.01972 | 38188 ft | 429 kts | 349° |
| 2026-04-22 15:47 | 45.20938 | 17.00706 | 38189 ft | 429 kts | 349° |
| 2026-04-22 15:48 | 45.26845 | 16.99446 | 38184 ft | 429 kts | 349° |
| 2026-04-22 15:48 | 45.32760 | 16.98180 | 38185 ft | 429 kts | 349° |
| 2026-04-22 15:49 | 45.38672 | 16.96912 | 38186 ft | 430 kts | 349° |
| 2026-04-22 15:49 | 45.44582 | 16.95641 | 38183 ft | 429 kts | 349° |
| 2026-04-22 15:50 | 45.50487 | 16.94369 | 38178 ft | 429 kts | 349° |
| 2026-04-22 15:50 | 45.56330 | 16.92919 | 38181 ft | 428 kts | 343° |
| 2026-04-22 15:51 | 45.61889 | 16.89950 | 38172 ft | 426 kts | 337° |
| 2026-04-22 15:51 | 45.67380 | 16.86741 | 38185 ft | 426 kts | 337° |
| 2026-04-22 15:52 | 45.72884 | 16.83547 | 38175 ft | 426 kts | 337° |
| 2026-04-22 15:52 | 45.78397 | 16.80378 | 38173 ft | 427 kts | 338° |
| 2026-04-22 15:53 | 45.83910 | 16.77217 | 38184 ft | 427 kts | 338° |
| 2026-04-22 15:53 | 45.89425 | 16.74051 | 38182 ft | 427 kts | 338° |
| 2026-04-22 15:54 | 45.94946 | 16.70874 | 38179 ft | 427 kts | 338° |
| 2026-04-22 15:54 | 46.00469 | 16.67688 | 38191 ft | 427 kts | 338° |
| 2026-04-22 15:55 | 46.05956 | 16.64517 | 38181 ft | 427 kts | 338° |
| 2026-04-22 15:55 | 46.11477 | 16.61318 | 38178 ft | 428 kts | 338° |
| 2026-04-22 15:56 | 46.16912 | 16.58162 | 38195 ft | 428 kts | 338° |
| 2026-04-22 15:56 | 46.22432 | 16.54951 | 38182 ft | 428 kts | 338° |
| 2026-04-22 15:57 | 46.27951 | 16.51733 | 38181 ft | 428 kts | 338° |
| 2026-04-22 15:57 | 46.33468 | 16.48509 | 38182 ft | 427 kts | 338° |
| 2026-04-22 15:58 | 46.38978 | 16.45282 | 38184 ft | 427 kts | 338° |
| 2026-04-22 15:58 | 46.44478 | 16.42053 | 38177 ft | 427 kts | 338° |
| 2026-04-22 15:59 | 46.49984 | 16.38815 | 38187 ft | 426 kts | 338° |
| 2026-04-22 15:59 | 46.55482 | 16.35573 | 38176 ft | 426 kts | 338° |
| 2026-04-22 16:00 | 46.60979 | 16.32326 | 38170 ft | 426 kts | 338° |
| 2026-04-22 16:00 | 46.66475 | 16.29072 | 38177 ft | 426 kts | 338° |
| 2026-04-22 16:01 | 46.71928 | 16.25836 | 38179 ft | 426 kts | 338° |
| 2026-04-22 16:01 | 46.77417 | 16.22571 | 38167 ft | 426 kts | 338° |
| 2026-04-22 16:02 | 46.82913 | 16.19296 | 38162 ft | 427 kts | 338° |
| 2026-04-22 16:02 | 46.88407 | 16.16013 | 38179 ft | 427 kts | 338° |
| 2026-04-22 16:03 | 46.93910 | 16.12718 | 38174 ft | 427 kts | 338° |
| 2026-04-22 16:03 | 46.99418 | 16.09423 | 38169 ft | 428 kts | 340° |
| 2026-04-22 16:04 | 47.05194 | 16.07488 | 38177 ft | 427 kts | 354° |
| 2026-04-22 16:04 | 47.11115 | 16.06767 | 38177 ft | 427 kts | 355° |
| 2026-04-22 16:05 | 47.17049 | 16.06082 | 38164 ft | 428 kts | 355° |
| 2026-04-22 16:05 | 47.22981 | 16.05354 | 38172 ft | 428 kts | 355° |
| 2026-04-22 16:06 | 47.28918 | 16.04597 | 38168 ft | 428 kts | 355° |
| 2026-04-22 16:06 | 47.34850 | 16.03830 | 38172 ft | 428 kts | 355° |
| 2026-04-22 16:07 | 47.40745 | 16.03066 | 38180 ft | 428 kts | 355° |
| 2026-04-22 16:07 | 47.46687 | 16.02295 | 38175 ft | 428 kts | 355° |
| 2026-04-22 16:08 | 47.52623 | 16.01523 | 38173 ft | 428 kts | 355° |
| 2026-04-22 16:08 | 47.58553 | 16.00750 | 38188 ft | 428 kts | 355° |
| 2026-04-22 16:09 | 47.64484 | 15.99976 | 38177 ft | 428 kts | 355° |
| 2026-04-22 16:09 | 47.70381 | 15.99204 | 38185 ft | 428 kts | 355° |
| 2026-04-22 16:10 | 47.76311 | 15.98426 | 38195 ft | 428 kts | 355° |
| 2026-04-22 16:10 | 47.82245 | 15.97646 | 38182 ft | 428 kts | 355° |
| 2026-04-22 16:11 | 47.88177 | 15.96864 | 38190 ft | 428 kts | 355° |
| 2026-04-22 16:11 | 47.94112 | 15.96080 | 38199 ft | 428 kts | 355° |
| 2026-04-22 16:12 | 48.00052 | 15.95293 | 38193 ft | 429 kts | 355° |
| 2026-04-22 16:12 | 48.05995 | 15.94505 | 38190 ft | 429 kts | 355° |
| 2026-04-22 16:13 | 48.11944 | 15.93714 | 38205 ft | 429 kts | 355° |
| 2026-04-22 16:13 | 48.17898 | 15.92920 | 38192 ft | 430 kts | 355° |
| 2026-04-22 16:14 | 48.23857 | 15.92123 | 38195 ft | 430 kts | 355° |
| 2026-04-22 16:14 | 48.29823 | 15.91324 | 38208 ft | 430 kts | 355° |
| 2026-04-22 16:15 | 48.35790 | 15.90523 | 38198 ft | 431 kts | 355° |
| 2026-04-22 16:15 | 48.41765 | 15.89719 | 38201 ft | 431 kts | 355° |
| 2026-04-22 16:16 | 48.47739 | 15.88913 | 38199 ft | 431 kts | 355° |
| 2026-04-22 16:16 | 48.53720 | 15.88104 | 38214 ft | 432 kts | 355° |
| 2026-04-22 16:17 | 48.59707 | 15.87293 | 38196 ft | 432 kts | 355° |
| 2026-04-22 16:17 | 48.65699 | 15.86479 | 38198 ft | 433 kts | 355° |
| 2026-04-22 16:18 | 48.71656 | 15.85668 | 38208 ft | 433 kts | 355° |
| 2026-04-22 16:18 | 48.77657 | 15.84848 | 38202 ft | 433 kts | 355° |
| 2026-04-22 16:19 | 48.83664 | 15.84026 | 38209 ft | 433 kts | 355° |
| 2026-04-22 16:19 | 48.89586 | 15.82431 | 38199 ft | 434 kts | 341° |
| 2026-04-22 16:20 | 48.95238 | 15.79156 | 38214 ft | 435 kts | 340° |
| 2026-04-22 16:20 | 49.00866 | 15.75773 | 38209 ft | 435 kts | 340° |
| 2026-04-22 16:21 | 49.06504 | 15.72422 | 38221 ft | 435 kts | 340° |
| 2026-04-22 16:21 | 49.12156 | 15.69093 | 38209 ft | 435 kts | 340° |
| 2026-04-22 16:22 | 49.20627 | 15.64109 | 38214 ft | 435 kts | 340° |
| 2026-04-22 16:23 | 49.29099 | 15.59106 | 38213 ft | 435 kts | 340° |
| 2026-04-22 16:23 | 49.34711 | 15.55780 | 38226 ft | 435 kts | 340° |
| 2026-04-22 16:24 | 49.43181 | 15.50747 | 38216 ft | 435 kts | 340° |
| 2026-04-22 16:25 | 49.48822 | 15.47383 | 38226 ft | 435 kts | 340° |
| 2026-04-22 16:25 | 49.57293 | 15.42317 | 38229 ft | 435 kts | 340° |
| 2026-04-22 16:26 | 49.62941 | 15.38929 | 38215 ft | 436 kts | 340° |
| 2026-04-22 16:26 | 49.68592 | 15.35530 | 38208 ft | 436 kts | 340° |
| 2026-04-22 16:27 | 49.74241 | 15.32124 | 38234 ft | 436 kts | 340° |
| 2026-04-22 16:27 | 49.79893 | 15.28708 | 38227 ft | 436 kts | 340° |
| 2026-04-22 16:28 | 49.85550 | 15.25280 | 38226 ft | 437 kts | 340° |
| 2026-04-22 16:28 | 49.91209 | 15.21843 | 38217 ft | 437 kts | 340° |
| 2026-04-22 16:29 | 49.96874 | 15.18392 | 38230 ft | 437 kts | 340° |
| 2026-04-22 16:29 | 50.02541 | 15.14932 | 38221 ft | 438 kts | 340° |
| 2026-04-22 16:30 | 50.07251 | 15.12049 | 38228 ft | 438 kts | 340° |
| 2026-04-22 16:30 | 50.12925 | 15.08568 | 38234 ft | 438 kts | 340° |
| 2026-04-22 16:31 | 50.18598 | 15.05079 | 38240 ft | 438 kts | 340° |
| 2026-04-22 16:31 | 50.24268 | 15.01584 | 38224 ft | 438 kts | 340° |
| 2026-04-22 16:32 | 50.29937 | 14.98079 | 38232 ft | 438 kts | 340° |
| 2026-04-22 16:32 | 50.35607 | 14.94564 | 38226 ft | 438 kts | 340° |
| 2026-04-22 16:33 | 50.41275 | 14.91042 | 38230 ft | 438 kts | 340° |
| 2026-04-22 16:33 | 50.46904 | 14.87526 | 38226 ft | 439 kts | 339° |
| 2026-04-22 16:34 | 50.52176 | 14.82655 | 38248 ft | 441 kts | 327° |
| 2026-04-22 16:34 | 50.57164 | 14.77002 | 38246 ft | 442 kts | 326° |
| 2026-04-22 16:35 | 50.62154 | 14.71351 | 38238 ft | 442 kts | 327° |
| 2026-04-22 16:35 | 50.67165 | 14.65737 | 38236 ft | 442 kts | 327° |
| 2026-04-22 16:36 | 50.72180 | 14.60128 | 38234 ft | 442 kts | 327° |
| 2026-04-22 16:36 | 50.77199 | 14.54501 | 38245 ft | 442 kts | 327° |
| 2026-04-22 16:37 | 50.82214 | 14.48861 | 38243 ft | 443 kts | 327° |
| 2026-04-22 16:37 | 50.87236 | 14.43197 | 38241 ft | 443 kts | 327° |
| 2026-04-22 16:38 | 50.92406 | 14.37940 | 38248 ft | 440 kts | 337° |
| 2026-04-22 16:38 | 50.98208 | 14.35102 | 38263 ft | 436 kts | 351° |
| 2026-04-22 16:39 | 51.04184 | 14.33404 | 38249 ft | 437 kts | 352° |
| 2026-04-22 16:39 | 51.10174 | 14.31733 | 38246 ft | 438 kts | 352° |
| 2026-04-22 16:40 | 51.16168 | 14.30002 | 38250 ft | 438 kts | 351° |
| 2026-04-22 16:41 | 51.25164 | 14.27340 | 38246 ft | 439 kts | 351° |
| 2026-04-22 16:41 | 51.31168 | 14.25549 | 38236 ft | 439 kts | 351° |
| 2026-04-22 16:42 | 51.37168 | 14.23755 | 38249 ft | 438 kts | 351° |
| 2026-04-22 16:42 | 51.43164 | 14.21959 | 38239 ft | 438 kts | 352° |
| 2026-04-22 16:43 | 51.49113 | 14.20172 | 38237 ft | 438 kts | 352° |
| 2026-04-22 16:43 | 51.55099 | 14.18370 | 38240 ft | 437 kts | 352° |
| 2026-04-22 16:44 | 51.61077 | 14.16565 | 38237 ft | 437 kts | 352° |
| 2026-04-22 16:44 | 51.67044 | 14.14759 | 38236 ft | 436 kts | 352° |
| 2026-04-22 16:45 | 51.73004 | 14.12950 | 38247 ft | 435 kts | 352° |
| 2026-04-22 16:45 | 51.78958 | 14.11138 | 38234 ft | 435 kts | 352° |
| 2026-04-22 16:46 | 51.84908 | 14.09322 | 38239 ft | 435 kts | 352° |
| 2026-04-22 16:46 | 51.90855 | 14.07503 | 38228 ft | 434 kts | 352° |
| 2026-04-22 16:47 | 51.96796 | 14.05680 | 38243 ft | 434 kts | 352° |
| 2026-04-22 16:47 | 52.02697 | 14.03865 | 38235 ft | 434 kts | 352° |
| 2026-04-22 16:48 | 52.08365 | 14.02116 | 38232 ft | 435 kts | 352° |
| 2026-04-22 16:48 | 52.14310 | 14.00278 | 38235 ft | 435 kts | 352° |
| 2026-04-22 16:49 | 52.20256 | 13.98434 | 38247 ft | 435 kts | 352° |
| 2026-04-22 16:49 | 52.26207 | 13.96584 | 38238 ft | 435 kts | 352° |
| 2026-04-22 16:50 | 52.32149 | 13.94639 | 38238 ft | 437 kts | 346° |
| 2026-04-22 16:50 | 52.37923 | 13.91406 | 38246 ft | 439 kts | 342° |
| 2026-04-22 16:51 | 52.43655 | 13.87917 | 38242 ft | 440 kts | 342° |
| 2026-04-22 16:51 | 52.49396 | 13.84466 | 38258 ft | 440 kts | 343° |
| 2026-04-22 16:52 | 52.55152 | 13.81057 | 38245 ft | 440 kts | 343° |
| 2026-04-22 16:52 | 52.60880 | 13.77682 | 38238 ft | 440 kts | 343° |
| 2026-04-22 16:53 | 52.66642 | 13.74280 | 38250 ft | 440 kts | 343° |
| 2026-04-22 16:53 | 52.72404 | 13.70869 | 38239 ft | 440 kts | 343° |
| 2026-04-22 16:54 | 52.78160 | 13.67450 | 38237 ft | 440 kts | 343° |
| 2026-04-22 16:54 | 52.83917 | 13.64020 | 38257 ft | 440 kts | 343° |
| 2026-04-22 16:55 | 52.89671 | 13.60582 | 38251 ft | 439 kts | 343° |
| 2026-04-22 16:55 | 52.95420 | 13.57138 | 38235 ft | 439 kts | 343° |
| 2026-04-22 16:56 | 53.01160 | 13.53689 | 38252 ft | 439 kts | 343° |
| 2026-04-22 16:56 | 53.06900 | 13.50230 | 38244 ft | 439 kts | 343° |
| 2026-04-22 16:57 | 53.12637 | 13.46764 | 38238 ft | 438 kts | 343° |
| 2026-04-22 16:57 | 53.18370 | 13.43290 | 38250 ft | 438 kts | 343° |
| 2026-04-22 16:58 | 53.23138 | 13.40393 | 38244 ft | 438 kts | 343° |
| 2026-04-22 16:58 | 53.29799 | 13.36335 | 38240 ft | 438 kts | 343° |
| 2026-04-22 16:59 | 53.35528 | 13.32833 | 38259 ft | 438 kts | 343° |
| 2026-04-22 16:59 | 53.41265 | 13.29317 | 38246 ft | 439 kts | 343° |
| 2026-04-22 17:00 | 53.47020 | 13.25781 | 37757 ft | 445 kts | 343° |
| 2026-04-22 17:00 | 53.52782 | 13.22226 | 36887 ft | 435 kts | 343° |
| 2026-04-22 17:00 | 53.55615 | 13.20473 | 36448 ft | 432 kts | 344° |
| 2026-04-22 17:01 | 53.58418 | 13.18736 | 36048 ft | 427 kts | 344° |
| 2026-04-22 17:01 | 53.61195 | 13.17014 | 35640 ft | 423 kts | 344° |
| 2026-04-22 17:01 | 53.63945 | 13.15307 | 35237 ft | 420 kts | 345° |
| 2026-04-22 17:01 | 53.66670 | 13.13613 | 34837 ft | 416 kts | 345° |
| 2026-04-22 17:02 | 53.69376 | 13.11930 | 34433 ft | 412 kts | 345° |
| 2026-04-22 17:02 | 53.72060 | 13.10257 | 33991 ft | 409 kts | 345° |
| 2026-04-22 17:02 | 53.74716 | 13.08599 | 33556 ft | 405 kts | 346° |
| 2026-04-22 17:02 | 53.77348 | 13.06954 | 33140 ft | 401 kts | 346° |
| 2026-04-22 17:03 | 53.79950 | 13.05326 | 32749 ft | 397 kts | 346° |
| 2026-04-22 17:03 | 53.82531 | 13.03709 | 32345 ft | 393 kts | 346° |
| 2026-04-22 17:03 | 53.85086 | 13.02107 | 31960 ft | 390 kts | 346° |
| 2026-04-22 17:03 | 53.87585 | 13.00538 | 31588 ft | 386 kts | 347° |
| 2026-04-22 17:04 | 53.90094 | 12.98960 | 31217 ft | 383 kts | 347° |
| 2026-04-22 17:04 | 53.92581 | 12.97395 | 30840 ft | 380 kts | 347° |
| 2026-04-22 17:04 | 53.95051 | 12.95838 | 30481 ft | 377 kts | 347° |
| 2026-04-22 17:04 | 53.97504 | 12.94290 | 30067 ft | 374 kts | 348° |
| 2026-04-22 17:05 | 53.99934 | 12.92755 | 29651 ft | 371 kts | 347° |
| 2026-04-22 17:05 | 54.02339 | 12.91232 | 29272 ft | 366 kts | 347° |
| 2026-04-22 17:05 | 54.04716 | 12.89726 | 28885 ft | 363 kts | 347° |
| 2026-04-22 17:05 | 54.07069 | 12.88233 | 28497 ft | 359 kts | 347° |
| 2026-04-22 17:06 | 54.09400 | 12.86753 | 28122 ft | 356 kts | 347° |
| 2026-04-22 17:06 | 54.11714 | 12.85282 | 27748 ft | 353 kts | 347° |
| 2026-04-22 17:06 | 54.14003 | 12.83826 | 27377 ft | 350 kts | 347° |
| 2026-04-22 17:06 | 54.16280 | 12.82375 | 27006 ft | 347 kts | 347° |
| 2026-04-22 17:07 | 54.18507 | 12.80955 | 26642 ft | 345 kts | 347° |
| 2026-04-22 17:07 | 54.20751 | 12.79523 | 26290 ft | 343 kts | 347° |
| 2026-04-22 17:07 | 54.22979 | 12.78114 | 25892 ft | 340 kts | 349° |
| 2026-04-22 17:07 | 54.25283 | 12.77311 | 25199 ft | 337 kts | 3° |
| 2026-04-22 17:08 | 54.27611 | 12.77391 | 24692 ft | 334 kts | 10° |
| 2026-04-22 17:08 | 54.29921 | 12.77658 | 24317 ft | 332 kts | 10° |
| 2026-04-22 17:08 | 54.32219 | 12.77939 | 23983 ft | 329 kts | 10° |
| 2026-04-22 17:08 | 54.34497 | 12.78214 | 23582 ft | 327 kts | 10° |
| 2026-04-22 17:09 | 54.36765 | 12.78482 | 23151 ft | 326 kts | 10° |
| 2026-04-22 17:09 | 54.39022 | 12.78743 | 22727 ft | 324 kts | 9° |
| 2026-04-22 17:09 | 54.40507 | 12.78911 | 22457 ft | 323 kts | 9° |
| 2026-04-22 17:09 | 54.43498 | 12.79245 | 21930 ft | 321 kts | 9° |
| 2026-04-22 17:10 | 54.45720 | 12.79491 | 21528 ft | 319 kts | 9° |
| 2026-04-22 17:10 | 54.47930 | 12.79735 | 21139 ft | 317 kts | 9° |
| 2026-04-22 17:10 | 54.50129 | 12.79976 | 20752 ft | 316 kts | 8° |
| 2026-04-22 17:10 | 54.52320 | 12.80217 | 20367 ft | 315 kts | 8° |
| 2026-04-22 17:11 | 54.54503 | 12.80457 | 19999 ft | 314 kts | 8° |
| 2026-04-22 17:11 | 54.56674 | 12.80695 | 19631 ft | 312 kts | 8° |
| 2026-04-22 17:11 | 54.58839 | 12.80933 | 19269 ft | 311 kts | 8° |
| 2026-04-22 17:11 | 54.60968 | 12.81167 | 18921 ft | 310 kts | 8° |
| 2026-04-22 17:12 | 54.63113 | 12.81403 | 18566 ft | 308 kts | 7° |
| 2026-04-22 17:12 | 54.65252 | 12.81638 | 18175 ft | 307 kts | 7° |
| 2026-04-22 17:12 | 54.67379 | 12.81872 | 17803 ft | 305 kts | 7° |
| 2026-04-22 17:12 | 54.69492 | 12.82105 | 17423 ft | 304 kts | 7° |
| 2026-04-22 17:13 | 54.71599 | 12.82337 | 17049 ft | 302 kts | 7° |
| 2026-04-22 17:13 | 54.73693 | 12.82569 | 16685 ft | 301 kts | 7° |
| 2026-04-22 17:13 | 54.75775 | 12.82799 | 16323 ft | 299 kts | 7° |
| 2026-04-22 17:13 | 54.77847 | 12.83029 | 15980 ft | 298 kts | 7° |
| 2026-04-22 17:14 | 54.79917 | 12.83258 | 15609 ft | 297 kts | 7° |
| 2026-04-22 17:14 | 54.81972 | 12.83486 | 15264 ft | 295 kts | 7° |
| 2026-04-22 17:14 | 54.84020 | 12.83714 | 14927 ft | 294 kts | 7° |
| 2026-04-22 17:14 | 54.86058 | 12.83941 | 14585 ft | 293 kts | 7° |
| 2026-04-22 17:15 | 54.87403 | 12.84090 | 14361 ft | 292 kts | 7° |
| 2026-04-22 17:15 | 54.90112 | 12.84392 | 13914 ft | 290 kts | 7° |
| 2026-04-22 17:15 | 54.92123 | 12.84616 | 13559 ft | 289 kts | 7° |
| 2026-04-22 17:15 | 54.94122 | 12.84839 | 13213 ft | 287 kts | 7° |
| 2026-04-22 17:16 | 54.96112 | 12.85062 | 12866 ft | 286 kts | 7° |
| 2026-04-22 17:16 | 54.98089 | 12.85283 | 12532 ft | 284 kts | 6° |
| 2026-04-22 17:16 | 55.00054 | 12.85503 | 12200 ft | 282 kts | 6° |
| 2026-04-22 17:16 | 55.02002 | 12.85721 | 11950 ft | 278 kts | 6° |
| 2026-04-22 17:17 | 55.03879 | 12.85930 | 11792 ft | 270 kts | 6° |
| 2026-04-22 17:17 | 55.05744 | 12.86139 | 11522 ft | 268 kts | 6° |
| 2026-04-22 17:17 | 55.07600 | 12.86348 | 11199 ft | 267 kts | 6° |
| 2026-04-22 17:17 | 55.09452 | 12.86557 | 10898 ft | 266 kts | 6° |
| 2026-04-22 17:18 | 55.11300 | 12.86766 | 10601 ft | 265 kts | 6° |
| 2026-04-22 17:18 | 55.13141 | 12.86974 | 10312 ft | 264 kts | 6° |
| 2026-04-22 17:18 | 55.14969 | 12.87180 | 10016 ft | 262 kts | 6° |
| 2026-04-22 17:18 | 55.16787 | 12.87386 | 9697 ft | 261 kts | 6° |
| 2026-04-22 17:19 | 55.20393 | 12.87794 | 9085 ft | 258 kts | 5° |
| 2026-04-22 17:19 | 55.23365 | 12.88130 | 8570 ft | 257 kts | 5° |
| 2026-04-22 17:20 | 55.26917 | 12.88472 | 7969 ft | 255 kts | 4° |
| 2026-04-22 17:20 | 55.30449 | 12.88770 | 7384 ft | 253 kts | 4° |
| 2026-04-22 17:21 | 55.32205 | 12.88926 | 7098 ft | 252 kts | 4° |
| 2026-04-22 17:21 | 55.35690 | 12.89253 | 6531 ft | 250 kts | 4° |
| 2026-04-22 17:22 | 55.39111 | 12.89598 | 6146 ft | 239 kts | 4° |
| 2026-04-22 17:22 | 55.40752 | 12.89767 | 6021 ft | 233 kts | 4° |
| 2026-04-22 17:22 | 55.43799 | 12.90095 | 5774 ft | 203 kts | 4° |
| 2026-04-22 17:23 | 55.45163 | 12.90247 | 5514 ft | 193 kts | 4° |
| 2026-04-22 17:23 | 55.47819 | 12.90576 | 4705 ft | 190 kts | 4° |
| 2026-04-22 17:23 | 55.49127 | 12.90765 | 4316 ft | 187 kts | 4° |
| 2026-04-22 17:24 | 55.50417 | 12.90969 | 3929 ft | 185 kts | 4° |
| 2026-04-22 17:24 | 55.51662 | 12.90720 | 3479 ft | 182 kts | 330° |
| 2026-04-22 17:24 | 55.52597 | 12.89253 | 3086 ft | 180 kts | 316° |
| 2026-04-22 17:24 | 55.53408 | 12.87679 | 2826 ft | 171 kts | 311° |
| 2026-04-22 17:25 | 55.54152 | 12.86104 | 2590 ft | 163 kts | 310° |
| 2026-04-22 17:25 | 55.54800 | 12.84532 | 2368 ft | 154 kts | 306° |
| 2026-04-22 17:25 | 55.55379 | 12.83002 | 2170 ft | 147 kts | 305° |
| 2026-04-22 17:25 | 55.55926 | 12.81523 | 1988 ft | 140 kts | 306° |
| 2026-04-22 17:26 | 55.56449 | 12.80102 | 1812 ft | 140 kts | 305° |
| 2026-04-22 17:26 | 55.56977 | 12.78667 | 1609 ft | 139 kts | 305° |
| 2026-04-22 17:26 | 55.57498 | 12.77249 | 1411 ft | 137 kts | 304° |
| 2026-04-22 17:26 | 55.58016 | 12.75840 | 1238 ft | 137 kts | 304° |
| 2026-04-22 17:27 | 55.58537 | 12.74427 | 1042 ft | 136 kts | 304° |
| 2026-04-22 17:27 | 55.59051 | 12.73028 | 860 ft | 135 kts | 303° |
| 2026-04-22 17:27 | 55.59567 | 12.71624 | 698 ft | 138 kts | 303° |
| 2026-04-22 17:27 | 55.60082 | 12.70199 | 530 ft | 136 kts | 305° |
| 2026-04-22 17:28 | 55.60602 | 12.68815 | 324 ft | 133 kts | 304° |
| 2026-04-22 17:28 | 55.61105 | 12.67451 | 146 ft | 133 kts | 305° |
| 2026-04-22 17:28 | 55.61611 | 12.66086 | 22 ft | 129 kts | 304° |
| 2026-04-22 17:28 | 55.61999 | 12.65036 | 16 ft | 70 kts | 302° |
| 2026-04-22 17:29 | 55.62168 | 12.64577 | 17 ft | 27 kts | 303° |
| 2026-04-22 17:29 | 55.62269 | 12.64431 | 15 ft | 10 kts | 345° |
| 2026-04-22 17:29 | 55.62336 | 12.64427 | 16 ft | 10 kts | 7° |
| 2026-04-22 17:29 | 55.62399 | 12.64456 | 16 ft | 9 kts | 17° |
| 2026-04-22 17:30 | 55.62462 | 12.64487 | 16 ft | 9 kts | 13° |
| 2026-04-22 17:30 | 55.62514 | 12.64429 | 16 ft | 11 kts | 304° |
| 2026-04-22 17:30 | 55.62563 | 12.64293 | 16 ft | 14 kts | 303° |
| 2026-04-22 17:30 | 55.62615 | 12.64178 | 16 ft | 9 kts | 343° |
| 2026-04-22 17:31 | 55.62650 | 12.64211 | 16 ft | 3 kts | 36° |
| 2026-04-22 17:31 | 55.62666 | 12.64229 | 18 ft | 2 kts | 33° |
| 2026-04-22 17:31 | 55.62669 | 12.64233 | 17 ft | 0 kts | 33° |